sensor_id;sensor_type;location;lat;lon;timestamp;P1;durP1;ratioP1;P2;durP2;ratioP2
12623;SDS011;6377;42.836;23.998;2022-11-04T00:01:52;16.83;;;11.30;;
12623;SDS011;6377;42.836;23.998;2022-11-04T00:04:23;17.70;;;10.70;;
12623;SDS011;6377;42.836;23.998;2022-11-04T00:06:52;15.50;;;9.60;;
12623;SDS011;6377;42.836;23.998;2022-11-04T00:09:21;19.10;;;9.37;;
12623;SDS011;6377;42.836;23.998;2022-11-04T00:11:49;14.23;;;9.00;;
12623;SDS011;6377;42.836;23.998;2022-11-04T00:14:34;16.57;;;8.70;;
12623;SDS011;6377;42.836;23.998;2022-11-04T00:17:03;14.20;;;8.97;;
12623;SDS011;6377;42.836;23.998;2022-11-04T00:19:48;18.33;;;10.60;;
12623;SDS011;6377;42.836;23.998;2022-11-04T00:22:34;22.87;;;13.60;;
12623;SDS011;6377;42.836;23.998;2022-11-04T00:25:19;18.47;;;11.63;;
12623;SDS011;6377;42.836;23.998;2022-11-04T00:28:05;19.90;;;11.93;;
12623;SDS011;6377;42.836;23.998;2022-11-04T00:30:53;16.70;;;10.90;;
12623;SDS011;6377;42.836;23.998;2022-11-04T00:33:22;15.10;;;11.07;;
12623;SDS011;6377;42.836;23.998;2022-11-04T00:35:53;19.73;;;12.70;;
12623;SDS011;6377;42.836;23.998;2022-11-04T00:38:23;23.53;;;14.27;;
12623;SDS011;6377;42.836;23.998;2022-11-04T00:40:51;24.53;;;14.17;;
12623;SDS011;6377;42.836;23.998;2022-11-04T00:43:18;22.67;;;13.83;;
12623;SDS011;6377;42.836;23.998;2022-11-04T00:45:46;25.30;;;14.57;;
12623;SDS011;6377;42.836;23.998;2022-11-04T00:48:13;25.13;;;15.23;;
12623;SDS011;6377;42.836;23.998;2022-11-04T00:50:41;24.77;;;15.13;;
12623;SDS011;6377;42.836;23.998;2022-11-04T00:53:10;23.37;;;15.37;;
12623;SDS011;6377;42.836;23.998;2022-11-04T00:55:38;24.50;;;15.60;;
12623;SDS011;6377;42.836;23.998;2022-11-04T00:58:05;26.77;;;17.23;;
12623;SDS011;6377;42.836;23.998;2022-11-04T01:00:33;30.83;;;18.43;;
12623;SDS011;6377;42.836;23.998;2022-11-04T01:03:00;28.80;;;18.17;;
12623;SDS011;6377;42.836;23.998;2022-11-04T01:05:28;26.63;;;18.23;;
12623;SDS011;6377;42.836;23.998;2022-11-04T01:07:55;27.00;;;18.03;;
12623;SDS011;6377;42.836;23.998;2022-11-04T01:10:24;25.50;;;17.47;;
12623;SDS011;6377;42.836;23.998;2022-11-04T01:12:52;25.80;;;16.73;;
12623;SDS011;6377;42.836;23.998;2022-11-04T01:15:19;24.23;;;16.93;;
12623;SDS011;6377;42.836;23.998;2022-11-04T01:17:47;25.63;;;16.30;;
12623;SDS011;6377;42.836;23.998;2022-11-04T01:20:14;23.13;;;16.10;;
12623;SDS011;6377;42.836;23.998;2022-11-04T01:22:43;25.30;;;15.53;;
12623;SDS011;6377;42.836;23.998;2022-11-04T01:25:10;22.67;;;15.40;;
12623;SDS011;6377;42.836;23.998;2022-11-04T01:27:39;23.53;;;15.33;;
12623;SDS011;6377;42.836;23.998;2022-11-04T01:30:07;23.23;;;14.70;;
12623;SDS011;6377;42.836;23.998;2022-11-04T01:32:36;22.80;;;15.57;;
12623;SDS011;6377;42.836;23.998;2022-11-04T01:35:04;21.47;;;14.40;;
12623;SDS011;6377;42.836;23.998;2022-11-04T01:37:32;23.03;;;14.33;;
12623;SDS011;6377;42.836;23.998;2022-11-04T01:39:59;22.20;;;14.47;;
12623;SDS011;6377;42.836;23.998;2022-11-04T01:42:27;20.93;;;13.63;;
12623;SDS011;6377;42.836;23.998;2022-11-04T01:44:57;22.87;;;13.23;;
12623;SDS011;6377;42.836;23.998;2022-11-04T01:47:27;18.30;;;11.03;;
12623;SDS011;6377;42.836;23.998;2022-11-04T01:49:59;18.73;;;10.70;;
12623;SDS011;6377;42.836;23.998;2022-11-04T01:52:31;16.53;;;11.87;;
12623;SDS011;6377;42.836;23.998;2022-11-04T01:55:05;14.40;;;10.13;;
12623;SDS011;6377;42.836;23.998;2022-11-04T01:57:38;18.90;;;10.40;;
12623;SDS011;6377;42.836;23.998;2022-11-04T02:00:10;17.27;;;10.40;;
12623;SDS011;6377;42.836;23.998;2022-11-04T02:02:41;17.60;;;10.60;;
12623;SDS011;6377;42.836;23.998;2022-11-04T02:05:16;18.10;;;10.57;;
12623;SDS011;6377;42.836;23.998;2022-11-04T02:07:45;19.73;;;11.20;;
12623;SDS011;6377;42.836;23.998;2022-11-04T02:10:17;19.23;;;11.50;;
12623;SDS011;6377;42.836;23.998;2022-11-04T02:12:48;15.87;;;9.83;;
12623;SDS011;6377;42.836;23.998;2022-11-04T02:15:16;15.53;;;10.93;;
12623;SDS011;6377;42.836;23.998;2022-11-04T02:18:14;15.33;;;10.67;;
12623;SDS011;6377;42.836;23.998;2022-11-04T02:21:23;17.77;;;9.07;;
12623;SDS011;6377;42.836;23.998;2022-11-04T02:27:11;18.47;;;9.00;;
12623;SDS011;6377;42.836;23.998;2022-11-04T02:29:52;12.80;;;8.67;;
12623;SDS011;6377;42.836;23.998;2022-11-04T02:32:32;12.77;;;8.37;;
12623;SDS011;6377;42.836;23.998;2022-11-04T02:35:09;15.03;;;9.13;;
12623;SDS011;6377;42.836;23.998;2022-11-04T02:37:46;17.67;;;9.07;;
12623;SDS011;6377;42.836;23.998;2022-11-04T02:40:21;17.80;;;9.27;;
12623;SDS011;6377;42.836;23.998;2022-11-04T02:42:56;16.13;;;8.97;;
12623;SDS011;6377;42.836;23.998;2022-11-04T02:45:31;14.23;;;9.50;;
12623;SDS011;6377;42.836;23.998;2022-11-04T02:48:04;16.67;;;9.37;;
12623;SDS011;6377;42.836;23.998;2022-11-04T02:50:38;17.80;;;9.07;;
12623;SDS011;6377;42.836;23.998;2022-11-04T02:53:09;15.67;;;10.03;;
12623;SDS011;6377;42.836;23.998;2022-11-04T02:55:42;14.77;;;10.50;;
12623;SDS011;6377;42.836;23.998;2022-11-04T02:58:14;16.10;;;9.33;;
12623;SDS011;6377;42.836;23.998;2022-11-04T03:00:47;14.20;;;9.20;;
12623;SDS011;6377;42.836;23.998;2022-11-04T03:03:18;13.90;;;9.23;;
12623;SDS011;6377;42.836;23.998;2022-11-04T03:05:51;19.37;;;9.03;;
12623;SDS011;6377;42.836;23.998;2022-11-04T03:08:22;18.23;;;8.63;;
12623;SDS011;6377;42.836;23.998;2022-11-04T03:10:54;13.30;;;8.47;;
12623;SDS011;6377;42.836;23.998;2022-11-04T03:13:25;13.90;;;8.90;;
12623;SDS011;6377;42.836;23.998;2022-11-04T03:16:00;12.70;;;8.20;;
12623;SDS011;6377;42.836;23.998;2022-11-04T03:18:35;13.30;;;8.80;;
12623;SDS011;6377;42.836;23.998;2022-11-04T03:21:10;27.50;;;13.30;;
12623;SDS011;6377;42.836;23.998;2022-11-04T03:23:40;23.10;;;12.20;;
12623;SDS011;6377;42.836;23.998;2022-11-04T03:26:09;20.50;;;11.73;;
12623;SDS011;6377;42.836;23.998;2022-11-04T03:28:42;18.07;;;10.73;;
12623;SDS011;6377;42.836;23.998;2022-11-04T03:31:19;15.87;;;9.47;;
12623;SDS011;6377;42.836;23.998;2022-11-04T03:33:51;16.40;;;8.90;;
12623;SDS011;6377;42.836;23.998;2022-11-04T03:36:21;15.43;;;9.23;;
12623;SDS011;6377;42.836;23.998;2022-11-04T03:41:43;15.03;;;9.47;;
12623;SDS011;6377;42.836;23.998;2022-11-04T03:44:15;15.73;;;9.83;;
12623;SDS011;6377;42.836;23.998;2022-11-04T03:46:44;18.00;;;9.97;;
12623;SDS011;6377;42.836;23.998;2022-11-04T03:49:12;16.10;;;10.07;;
12623;SDS011;6377;42.836;23.998;2022-11-04T03:51:41;19.50;;;10.57;;
12623;SDS011;6377;42.836;23.998;2022-11-04T03:54:08;25.70;;;13.37;;
12623;SDS011;6377;42.836;23.998;2022-11-04T03:56:47;25.50;;;13.30;;
12623;SDS011;6377;42.836;23.998;2022-11-04T03:59:49;35.63;;;18.67;;
12623;SDS011;6377;42.836;23.998;2022-11-04T04:02:36;22.10;;;11.67;;
12623;SDS011;6377;42.836;23.998;2022-11-04T04:05:11;17.27;;;10.50;;
12623;SDS011;6377;42.836;23.998;2022-11-04T04:07:45;15.77;;;10.30;;
12623;SDS011;6377;42.836;23.998;2022-11-04T04:10:18;20.47;;;10.83;;
12623;SDS011;6377;42.836;23.998;2022-11-04T04:13:16;18.40;;;11.37;;
12623;SDS011;6377;42.836;23.998;2022-11-04T04:15:51;22.73;;;14.27;;
12623;SDS011;6377;42.836;23.998;2022-11-04T04:18:25;20.33;;;13.07;;
12623;SDS011;6377;42.836;23.998;2022-11-04T04:21:01;16.83;;;10.67;;
12623;SDS011;6377;42.836;23.998;2022-11-04T04:23:33;16.00;;;9.47;;
12623;SDS011;6377;42.836;23.998;2022-11-04T04:26:20;16.57;;;8.67;;
12623;SDS011;6377;42.836;23.998;2022-11-04T04:29:08;13.87;;;8.50;;
12623;SDS011;6377;42.836;23.998;2022-11-04T04:31:36;15.10;;;8.27;;
12623;SDS011;6377;42.836;23.998;2022-11-04T04:34:24;15.13;;;9.27;;
12623;SDS011;6377;42.836;23.998;2022-11-04T04:36:55;15.10;;;9.40;;
12623;SDS011;6377;42.836;23.998;2022-11-04T04:39:28;19.13;;;10.83;;
12623;SDS011;6377;42.836;23.998;2022-11-04T04:42:18;16.27;;;11.03;;
12623;SDS011;6377;42.836;23.998;2022-11-04T04:45:04;17.30;;;10.03;;
12623;SDS011;6377;42.836;23.998;2022-11-04T04:47:37;22.07;;;10.73;;
12623;SDS011;6377;42.836;23.998;2022-11-04T04:50:10;18.80;;;11.30;;
12623;SDS011;6377;42.836;23.998;2022-11-04T04:52:40;18.27;;;10.90;;
12623;SDS011;6377;42.836;23.998;2022-11-04T04:55:09;19.03;;;10.83;;
12623;SDS011;6377;42.836;23.998;2022-11-04T04:57:38;21.43;;;12.83;;
12623;SDS011;6377;42.836;23.998;2022-11-04T05:00:06;22.03;;;12.47;;
12623;SDS011;6377;42.836;23.998;2022-11-04T05:02:35;17.87;;;11.50;;
12623;SDS011;6377;42.836;23.998;2022-11-04T05:05:02;19.03;;;11.47;;
12623;SDS011;6377;42.836;23.998;2022-11-04T05:07:32;22.07;;;13.73;;
12623;SDS011;6377;42.836;23.998;2022-11-04T05:10:00;18.50;;;13.43;;
12623;SDS011;6377;42.836;23.998;2022-11-04T05:12:27;22.50;;;14.17;;
12623;SDS011;6377;42.836;23.998;2022-11-04T05:15:15;32.67;;;24.30;;
12623;SDS011;6377;42.836;23.998;2022-11-04T05:17:43;25.83;;;17.07;;
12623;SDS011;6377;42.836;23.998;2022-11-04T05:20:11;29.53;;;17.37;;
12623;SDS011;6377;42.836;23.998;2022-11-04T05:22:40;26.97;;;16.83;;
12623;SDS011;6377;42.836;23.998;2022-11-04T05:25:08;50.77;;;35.10;;
12623;SDS011;6377;42.836;23.998;2022-11-04T05:27:35;36.73;;;21.37;;
12623;SDS011;6377;42.836;23.998;2022-11-04T05:30:03;28.33;;;16.93;;
12623;SDS011;6377;42.836;23.998;2022-11-04T05:32:32;25.27;;;15.53;;
12623;SDS011;6377;42.836;23.998;2022-11-04T05:34:59;27.83;;;15.27;;
12623;SDS011;6377;42.836;23.998;2022-11-04T05:37:27;25.60;;;15.53;;
12623;SDS011;6377;42.836;23.998;2022-11-04T05:39:56;28.90;;;17.97;;
12623;SDS011;6377;42.836;23.998;2022-11-04T05:42:23;26.53;;;16.90;;
12623;SDS011;6377;42.836;23.998;2022-11-04T05:44:51;20.73;;;12.73;;
12623;SDS011;6377;42.836;23.998;2022-11-04T05:47:18;37.10;;;29.00;;
12623;SDS011;6377;42.836;23.998;2022-11-04T05:49:46;19.07;;;14.93;;
12623;SDS011;6377;42.836;23.998;2022-11-04T05:52:13;24.90;;;14.87;;
12623;SDS011;6377;42.836;23.998;2022-11-04T05:57:29;22.67;;;14.67;;
12623;SDS011;6377;42.836;23.998;2022-11-04T05:59:56;22.07;;;14.40;;
12623;SDS011;6377;42.836;23.998;2022-11-04T06:02:24;22.77;;;14.87;;
12623;SDS011;6377;42.836;23.998;2022-11-04T06:04:51;26.20;;;17.10;;
12623;SDS011;6377;42.836;23.998;2022-11-04T06:07:19;25.43;;;16.33;;
12623;SDS011;6377;42.836;23.998;2022-11-04T06:09:46;24.13;;;17.17;;
12623;SDS011;6377;42.836;23.998;2022-11-04T06:12:14;31.10;;;17.97;;
12623;SDS011;6377;42.836;23.998;2022-11-04T06:14:44;27.63;;;17.33;;
12623;SDS011;6377;42.836;23.998;2022-11-04T06:17:13;30.70;;;17.23;;
12623;SDS011;6377;42.836;23.998;2022-11-04T06:19:41;27.67;;;18.00;;
12623;SDS011;6377;42.836;23.998;2022-11-04T06:22:10;29.53;;;16.97;;
12623;SDS011;6377;42.836;23.998;2022-11-04T06:24:38;38.57;;;25.63;;
12623;SDS011;6377;42.836;23.998;2022-11-04T06:27:06;28.93;;;18.30;;
12623;SDS011;6377;42.836;23.998;2022-11-04T06:29:34;32.73;;;18.10;;
12623;SDS011;6377;42.836;23.998;2022-11-04T06:32:08;31.47;;;21.17;;
12623;SDS011;6377;42.836;23.998;2022-11-04T06:34:36;29.80;;;17.67;;
12623;SDS011;6377;42.836;23.998;2022-11-04T06:37:04;28.53;;;18.13;;
12623;SDS011;6377;42.836;23.998;2022-11-04T06:39:32;32.43;;;18.90;;
12623;SDS011;6377;42.836;23.998;2022-11-04T06:41:59;30.47;;;18.17;;
12623;SDS011;6377;42.836;23.998;2022-11-04T06:44:27;28.13;;;16.47;;
12623;SDS011;6377;42.836;23.998;2022-11-04T06:46:54;25.83;;;15.97;;
12623;SDS011;6377;42.836;23.998;2022-11-04T06:49:23;28.90;;;17.23;;
12623;SDS011;6377;42.836;23.998;2022-11-04T06:51:51;26.97;;;16.97;;
12623;SDS011;6377;42.836;23.998;2022-11-04T06:54:19;36.53;;;20.37;;
12623;SDS011;6377;42.836;23.998;2022-11-04T06:56:47;40.97;;;21.03;;
12623;SDS011;6377;42.836;23.998;2022-11-04T06:59:15;31.53;;;17.93;;
12623;SDS011;6377;42.836;23.998;2022-11-04T07:01:44;26.03;;;18.30;;
12623;SDS011;6377;42.836;23.998;2022-11-04T07:04:12;31.50;;;19.07;;
12623;SDS011;6377;42.836;23.998;2022-11-04T07:06:42;33.97;;;20.93;;
12623;SDS011;6377;42.836;23.998;2022-11-04T07:09:10;29.10;;;17.80;;
12623;SDS011;6377;42.836;23.998;2022-11-04T07:11:38;28.43;;;18.30;;
12623;SDS011;6377;42.836;23.998;2022-11-04T07:14:07;26.23;;;17.40;;
12623;SDS011;6377;42.836;23.998;2022-11-04T07:16:35;25.37;;;17.00;;
12623;SDS011;6377;42.836;23.998;2022-11-04T07:19:02;32.60;;;20.57;;
12623;SDS011;6377;42.836;23.998;2022-11-04T07:21:31;36.03;;;20.57;;
12623;SDS011;6377;42.836;23.998;2022-11-04T07:24:00;31.60;;;19.90;;
12623;SDS011;6377;42.836;23.998;2022-11-04T07:26:28;27.87;;;19.37;;
12623;SDS011;6377;42.836;23.998;2022-11-04T07:28:55;29.43;;;18.40;;
12623;SDS011;6377;42.836;23.998;2022-11-04T07:31:25;25.23;;;17.37;;
12623;SDS011;6377;42.836;23.998;2022-11-04T07:33:52;20.47;;;13.77;;
12623;SDS011;6377;42.836;23.998;2022-11-04T07:36:20;29.50;;;14.40;;
12623;SDS011;6377;42.836;23.998;2022-11-04T07:38:48;26.63;;;16.10;;
12623;SDS011;6377;42.836;23.998;2022-11-04T07:41:17;21.50;;;14.57;;
12623;SDS011;6377;42.836;23.998;2022-11-04T07:43:47;26.37;;;14.67;;
12623;SDS011;6377;42.836;23.998;2022-11-04T07:46:16;20.73;;;14.37;;
12623;SDS011;6377;42.836;23.998;2022-11-04T07:48:44;23.27;;;15.10;;
12623;SDS011;6377;42.836;23.998;2022-11-04T07:51:12;26.87;;;17.20;;
12623;SDS011;6377;42.836;23.998;2022-11-04T07:53:42;21.53;;;14.90;;
12623;SDS011;6377;42.836;23.998;2022-11-04T07:56:11;24.17;;;14.87;;
12623;SDS011;6377;42.836;23.998;2022-11-04T07:58:40;25.63;;;14.67;;
12623;SDS011;6377;42.836;23.998;2022-11-04T08:01:09;22.67;;;13.77;;
12623;SDS011;6377;42.836;23.998;2022-11-04T08:03:38;23.30;;;12.40;;
12623;SDS011;6377;42.836;23.998;2022-11-04T08:06:07;20.67;;;11.30;;
12623;SDS011;6377;42.836;23.998;2022-11-04T08:08:36;20.07;;;13.13;;
12623;SDS011;6377;42.836;23.998;2022-11-04T08:11:04;19.00;;;13.30;;
12623;SDS011;6377;42.836;23.998;2022-11-04T08:13:34;17.80;;;10.90;;
12623;SDS011;6377;42.836;23.998;2022-11-04T08:16:04;26.73;;;13.90;;
12623;SDS011;6377;42.836;23.998;2022-11-04T08:18:34;33.73;;;19.13;;
12623;SDS011;6377;42.836;23.998;2022-11-04T08:21:01;20.63;;;12.13;;
12623;SDS011;6377;42.836;23.998;2022-11-04T08:23:29;20.93;;;11.63;;
12623;SDS011;6377;42.836;23.998;2022-11-04T08:25:58;13.17;;;8.13;;
12623;SDS011;6377;42.836;23.998;2022-11-04T08:28:26;17.00;;;8.67;;
12623;SDS011;6377;42.836;23.998;2022-11-04T08:30:58;16.07;;;9.10;;
12623;SDS011;6377;42.836;23.998;2022-11-04T08:33:29;11.43;;;7.10;;
12623;SDS011;6377;42.836;23.998;2022-11-04T08:35:58;16.67;;;8.07;;
12623;SDS011;6377;42.836;23.998;2022-11-04T08:38:27;12.00;;;7.90;;
12623;SDS011;6377;42.836;23.998;2022-11-04T08:41:04;12.70;;;8.00;;
12623;SDS011;6377;42.836;23.998;2022-11-04T08:43:35;18.77;;;8.73;;
12623;SDS011;6377;42.836;23.998;2022-11-04T08:46:04;21.47;;;11.53;;
12623;SDS011;6377;42.836;23.998;2022-11-04T08:48:35;24.97;;;12.50;;
12623;SDS011;6377;42.836;23.998;2022-11-04T08:51:04;62.60;;;24.87;;
12623;SDS011;6377;42.836;23.998;2022-11-04T08:53:32;27.93;;;12.90;;
12623;SDS011;6377;42.836;23.998;2022-11-04T08:56:07;22.30;;;10.70;;
12623;SDS011;6377;42.836;23.998;2022-11-04T08:58:35;15.50;;;8.48;;
12623;SDS011;6377;42.836;23.998;2022-11-04T09:01:03;19.10;;;11.48;;
12623;SDS011;6377;42.836;23.998;2022-11-04T09:03:31;31.85;;;13.15;;
12623;SDS011;6377;42.836;23.998;2022-11-04T09:06:02;23.17;;;13.25;;
12623;SDS011;6377;42.836;23.998;2022-11-04T09:08:30;17.33;;;11.77;;
12623;SDS011;6377;42.836;23.998;2022-11-04T09:10:58;19.60;;;10.82;;
12623;SDS011;6377;42.836;23.998;2022-11-04T09:13:26;20.40;;;10.57;;
12623;SDS011;6377;42.836;23.998;2022-11-04T09:15:53;12.13;;;7.40;;
12623;SDS011;6377;42.836;23.998;2022-11-04T09:18:21;11.23;;;5.18;;
12623;SDS011;6377;42.836;23.998;2022-11-04T09:20:48;9.13;;;5.18;;
12623;SDS011;6377;42.836;23.998;2022-11-04T09:23:17;9.32;;;4.85;;
12623;SDS011;6377;42.836;23.998;2022-11-04T09:25:45;9.02;;;4.95;;
12623;SDS011;6377;42.836;23.998;2022-11-04T09:28:12;21.00;;;13.50;;
12623;SDS011;6377;42.836;23.998;2022-11-04T09:30:40;16.65;;;9.15;;
12623;SDS011;6377;42.836;23.998;2022-11-04T09:33:07;17.63;;;8.63;;
12623;SDS011;6377;42.836;23.998;2022-11-04T09:35:35;15.65;;;6.63;;
12623;SDS011;6377;42.836;23.998;2022-11-04T09:38:02;21.40;;;10.27;;
12623;SDS011;6377;42.836;23.998;2022-11-04T09:40:33;80.55;;;40.88;;
12623;SDS011;6377;42.836;23.998;2022-11-04T09:43:06;90.05;;;44.45;;
12623;SDS011;6377;42.836;23.998;2022-11-04T09:45:44;53.90;;;25.70;;
12623;SDS011;6377;42.836;23.998;2022-11-04T09:48:13;15.15;;;6.68;;
12623;SDS011;6377;42.836;23.998;2022-11-04T09:50:49;36.25;;;14.02;;
12623;SDS011;6377;42.836;23.998;2022-11-04T09:53:20;9.23;;;5.45;;
12623;SDS011;6377;42.836;23.998;2022-11-04T09:55:53;10.48;;;4.93;;
12623;SDS011;6377;42.836;23.998;2022-11-04T09:58:23;26.27;;;12.68;;
12623;SDS011;6377;42.836;23.998;2022-11-04T10:00:52;11.55;;;5.65;;
12623;SDS011;6377;42.836;23.998;2022-11-04T10:03:29;9.32;;;5.13;;
12623;SDS011;6377;42.836;23.998;2022-11-04T10:06:10;11.95;;;4.50;;
12623;SDS011;6377;42.836;23.998;2022-11-04T10:08:53;8.80;;;4.20;;
12623;SDS011;6377;42.836;23.998;2022-11-04T10:11:36;7.93;;;4.57;;
12623;SDS011;6377;42.836;23.998;2022-11-04T10:14:15;13.27;;;5.82;;
12623;SDS011;6377;42.836;23.998;2022-11-04T10:16:59;8.13;;;4.82;;
12623;SDS011;6377;42.836;23.998;2022-11-04T10:19:37;54.70;;;20.83;;
12623;SDS011;6377;42.836;23.998;2022-11-04T10:22:25;48.53;;;19.40;;
12623;SDS011;6377;42.836;23.998;2022-11-04T10:25:00;55.00;;;19.55;;
12623;SDS011;6377;42.836;23.998;2022-11-04T10:27:36;8.93;;;4.97;;
12623;SDS011;6377;42.836;23.998;2022-11-04T10:30:12;12.50;;;4.88;;
12623;SDS011;6377;42.836;23.998;2022-11-04T10:32:47;20.35;;;8.05;;
12623;SDS011;6377;42.836;23.998;2022-11-04T10:35:26;18.52;;;10.45;;
12623;SDS011;6377;42.836;23.998;2022-11-04T10:37:58;9.82;;;5.95;;
12623;SDS011;6377;42.836;23.998;2022-11-04T10:40:39;20.80;;;5.40;;
12623;SDS011;6377;42.836;23.998;2022-11-04T10:43:12;9.38;;;5.85;;
12623;SDS011;6377;42.836;23.998;2022-11-04T10:45:46;11.40;;;6.57;;
12623;SDS011;6377;42.836;23.998;2022-11-04T10:48:24;7.10;;;4.15;;
12623;SDS011;6377;42.836;23.998;2022-11-04T10:50:55;8.52;;;3.67;;
12623;SDS011;6377;42.836;23.998;2022-11-04T10:53:24;9.75;;;4.72;;
12623;SDS011;6377;42.836;23.998;2022-11-04T10:55:56;10.77;;;4.97;;
12623;SDS011;6377;42.836;23.998;2022-11-04T10:58:31;8.65;;;4.13;;
12623;SDS011;6377;42.836;23.998;2022-11-04T11:01:01;10.15;;;4.13;;
12623;SDS011;6377;42.836;23.998;2022-11-04T11:03:49;13.60;;;5.18;;
12623;SDS011;6377;42.836;23.998;2022-11-04T11:06:19;9.57;;;4.15;;
12623;SDS011;6377;42.836;23.998;2022-11-04T11:08:50;8.70;;;4.38;;
12623;SDS011;6377;42.836;23.998;2022-11-04T11:11:36;8.05;;;4.05;;
12623;SDS011;6377;42.836;23.998;2022-11-04T11:14:15;10.20;;;3.97;;
12623;SDS011;6377;42.836;23.998;2022-11-04T11:16:44;7.43;;;3.78;;
12623;SDS011;6377;42.836;23.998;2022-11-04T11:19:16;7.25;;;4.07;;
12623;SDS011;6377;42.836;23.998;2022-11-04T11:21:45;5.80;;;3.45;;
12623;SDS011;6377;42.836;23.998;2022-11-04T11:24:16;5.88;;;3.50;;
12623;SDS011;6377;42.836;23.998;2022-11-04T11:26:46;10.95;;;4.72;;
12623;SDS011;6377;42.836;23.998;2022-11-04T11:29:21;10.52;;;3.72;;
12623;SDS011;6377;42.836;23.998;2022-11-04T11:31:51;6.68;;;3.60;;
12623;SDS011;6377;42.836;23.998;2022-11-04T11:34:21;8.00;;;3.72;;
12623;SDS011;6377;42.836;23.998;2022-11-04T11:36:52;7.72;;;3.00;;
12623;SDS011;6377;42.836;23.998;2022-11-04T11:39:22;6.75;;;3.75;;
12623;SDS011;6377;42.836;23.998;2022-11-04T11:41:55;7.90;;;3.40;;
12623;SDS011;6377;42.836;23.998;2022-11-04T11:44:27;6.22;;;3.85;;
12623;SDS011;6377;42.836;23.998;2022-11-04T11:46:58;8.30;;;3.80;;
12623;SDS011;6377;42.836;23.998;2022-11-04T11:49:28;8.73;;;3.92;;
12623;SDS011;6377;42.836;23.998;2022-11-04T11:54:52;8.25;;;3.20;;
12623;SDS011;6377;42.836;23.998;2022-11-04T11:57:35;13.35;;;3.90;;
12623;SDS011;6377;42.836;23.998;2022-11-04T12:00:12;9.90;;;4.88;;
12623;SDS011;6377;42.836;23.998;2022-11-04T12:02:47;6.85;;;3.83;;
12623;SDS011;6377;42.836;23.998;2022-11-04T12:05:25;9.60;;;3.67;;
12623;SDS011;6377;42.836;23.998;2022-11-04T12:07:57;7.85;;;3.17;;
12623;SDS011;6377;42.836;23.998;2022-11-04T12:10:32;9.27;;;4.20;;
12623;SDS011;6377;42.836;23.998;2022-11-04T12:13:06;7.97;;;4.38;;
12623;SDS011;6377;42.836;23.998;2022-11-04T12:15:46;7.18;;;4.20;;
12623;SDS011;6377;42.836;23.998;2022-11-04T12:18:29;8.10;;;3.70;;
12623;SDS011;6377;42.836;23.998;2022-11-04T12:21:05;5.78;;;3.63;;
12623;SDS011;6377;42.836;23.998;2022-11-04T12:23:42;9.00;;;3.67;;
12623;SDS011;6377;42.836;23.998;2022-11-04T12:26:20;7.20;;;4.03;;
12623;SDS011;6377;42.836;23.998;2022-11-04T12:28:59;11.50;;;5.60;;
12623;SDS011;6377;42.836;23.998;2022-11-04T12:31:41;7.53;;;4.95;;
12623;SDS011;6377;42.836;23.998;2022-11-04T12:34:22;7.93;;;3.28;;
12623;SDS011;6377;42.836;23.998;2022-11-04T12:37:04;6.75;;;4.93;;
12623;SDS011;6377;42.836;23.998;2022-11-04T12:39:47;7.43;;;4.85;;
12623;SDS011;6377;42.836;23.998;2022-11-04T12:42:25;8.63;;;3.83;;
12623;SDS011;6377;42.836;23.998;2022-11-04T12:45:05;7.72;;;4.55;;
12623;SDS011;6377;42.836;23.998;2022-11-04T12:47:47;7.55;;;3.78;;
12623;SDS011;6377;42.836;23.998;2022-11-04T12:56:09;10.15;;;4.03;;
12623;SDS011;6377;42.836;23.998;2022-11-04T12:58:41;6.55;;;3.40;;
12623;SDS011;6377;42.836;23.998;2022-11-04T13:01:22;6.72;;;3.63;;
12623;SDS011;6377;42.836;23.998;2022-11-04T13:04:00;6.95;;;4.15;;
12623;SDS011;6377;42.836;23.998;2022-11-04T13:06:37;6.75;;;4.00;;
12623;SDS011;6377;42.836;23.998;2022-11-04T13:09:10;6.40;;;4.30;;
12623;SDS011;6377;42.836;23.998;2022-11-04T13:11:43;9.52;;;4.20;;
12623;SDS011;6377;42.836;23.998;2022-11-04T13:14:17;8.80;;;4.32;;
12623;SDS011;6377;42.836;23.998;2022-11-04T13:16:54;12.10;;;4.93;;
12623;SDS011;6377;42.836;23.998;2022-11-04T13:19:27;8.80;;;4.03;;
12623;SDS011;6377;42.836;23.998;2022-11-04T13:22:01;7.32;;;4.22;;
12623;SDS011;6377;42.836;23.998;2022-11-04T13:24:34;9.30;;;4.53;;
12623;SDS011;6377;42.836;23.998;2022-11-04T13:27:08;7.75;;;4.10;;
12623;SDS011;6377;42.836;23.998;2022-11-04T13:29:42;10.07;;;4.90;;
12623;SDS011;6377;42.836;23.998;2022-11-04T13:32:10;7.00;;;4.60;;
12623;SDS011;6377;42.836;23.998;2022-11-04T13:34:50;7.72;;;4.70;;
12623;SDS011;6377;42.836;23.998;2022-11-04T13:37:24;9.77;;;5.45;;
12623;SDS011;6377;42.836;23.998;2022-11-04T13:39:56;8.60;;;4.93;;
12623;SDS011;6377;42.836;23.998;2022-11-04T13:45:44;7.50;;;4.45;;
12623;SDS011;6377;42.836;23.998;2022-11-04T13:48:15;13.07;;;5.45;;
12623;SDS011;6377;42.836;23.998;2022-11-04T13:50:48;10.57;;;6.25;;
12623;SDS011;6377;42.836;23.998;2022-11-04T13:53:38;8.48;;;5.50;;
12623;SDS011;6377;42.836;23.998;2022-11-04T13:56:08;12.10;;;6.20;;
12623;SDS011;6377;42.836;23.998;2022-11-04T13:58:36;17.48;;;5.72;;
12623;SDS011;6377;42.836;23.998;2022-11-04T14:01:08;8.43;;;4.88;;
12623;SDS011;6377;42.836;23.998;2022-11-04T14:03:38;9.82;;;4.40;;
12623;SDS011;6377;42.836;23.998;2022-11-04T14:06:18;7.88;;;5.30;;
12623;SDS011;6377;42.836;23.998;2022-11-04T14:09:23;13.18;;;5.30;;
12623;SDS011;6377;42.836;23.998;2022-11-04T14:12:16;11.85;;;6.30;;
12623;SDS011;6377;42.836;23.998;2022-11-04T14:14:52;11.15;;;6.68;;
12623;SDS011;6377;42.836;23.998;2022-11-04T14:20:30;20.50;;;12.60;;
12623;SDS011;6377;42.836;23.998;2022-11-04T14:23:01;15.55;;;7.32;;
12623;SDS011;6377;42.836;23.998;2022-11-04T14:25:34;10.48;;;8.20;;
12623;SDS011;6377;42.836;23.998;2022-11-04T14:28:17;13.45;;;9.13;;
12623;SDS011;6377;42.836;23.998;2022-11-04T14:30:53;22.75;;;9.90;;
12623;SDS011;6377;42.836;23.998;2022-11-04T14:33:25;16.90;;;11.60;;
12623;SDS011;6377;42.836;23.998;2022-11-04T14:36:12;17.63;;;13.05;;
12623;SDS011;6377;42.836;23.998;2022-11-04T14:38:49;24.25;;;18.23;;
12623;SDS011;6377;42.836;23.998;2022-11-04T14:41:21;25.88;;;15.98;;
12623;SDS011;6377;42.836;23.998;2022-11-04T14:43:57;17.83;;;10.15;;
12623;SDS011;6377;42.836;23.998;2022-11-04T14:46:29;12.93;;;7.70;;
12623;SDS011;6377;42.836;23.998;2022-11-04T14:49:00;15.73;;;9.77;;
12623;SDS011;6377;42.836;23.998;2022-11-04T14:51:29;27.00;;;13.30;;
12623;SDS011;6377;42.836;23.998;2022-11-04T14:54:02;44.38;;;26.95;;
12623;SDS011;6377;42.836;23.998;2022-11-04T14:56:32;23.17;;;11.53;;
12623;SDS011;6377;42.836;23.998;2022-11-04T14:59:00;36.67;;;25.27;;
12623;SDS011;6377;42.836;23.998;2022-11-04T15:01:30;64.53;;;45.85;;
12623;SDS011;6377;42.836;23.998;2022-11-04T15:04:03;47.47;;;35.95;;
12623;SDS011;6377;42.836;23.998;2022-11-04T15:06:33;60.47;;;47.42;;
12623;SDS011;6377;42.836;23.998;2022-11-04T15:09:02;14.07;;;10.00;;
12623;SDS011;6377;42.836;23.998;2022-11-04T15:11:29;22.50;;;13.70;;
12623;SDS011;6377;42.836;23.998;2022-11-04T15:14:22;23.17;;;11.97;;
12623;SDS011;6377;42.836;23.998;2022-11-04T15:16:52;32.03;;;21.20;;
12623;SDS011;6377;42.836;23.998;2022-11-04T15:19:24;25.53;;;12.03;;
12623;SDS011;6377;42.836;23.998;2022-11-04T15:21:56;27.00;;;15.67;;
12623;SDS011;6377;42.836;23.998;2022-11-04T15:24:26;24.57;;;14.33;;
12623;SDS011;6377;42.836;23.998;2022-11-04T15:26:56;23.30;;;15.80;;